sensor_id;sensor_type;location;lat;lon;timestamp;pressure;altitude;pressure_sealevel;temperature;humidity
31225;BME280;17847;31.524;74.366;2023-07-16T00:01:15;97556.88;;;27.81;100.00
31225;BME280;17847;31.524;74.366;2023-07-16T00:03:44;97559.41;;;27.86;100.00
31225;BME280;17847;31.524;74.366;2023-07-16T00:06:14;97559.41;;;27.86;100.00
31225;BME280;17847;31.524;74.366;2023-07-16T00:08:44;97552.91;;;27.78;100.00
31225;BME280;17847;31.524;74.366;2023-07-16T00:11:13;97553.38;;;27.80;100.00
31225;BME280;17847;31.524;74.366;2023-07-16T00:13:43;97542.16;;;27.82;100.00
31225;BME280;17847;31.524;74.366;2023-07-16T00:16:15;97539.13;;;27.83;100.00
31225;BME280;17847;31.524;74.366;2023-07-16T00:18:45;97517.47;;;27.87;100.00
31225;BME280;17847;31.524;74.366;2023-07-16T00:21:14;97514.41;;;27.88;100.00
31225;BME280;17847;31.524;74.366;2023-07-16T00:23:44;97505.91;;;27.90;100.00
31225;BME280;17847;31.524;74.366;2023-07-16T00:26:14;97503.66;;;27.92;100.00
31225;BME280;17847;31.524;74.366;2023-07-16T00:28:43;97490.47;;;27.82;100.00
31225;BME280;17847;31.524;74.366;2023-07-16T00:31:13;97489.97;;;27.80;100.00
31225;BME280;17847;31.524;74.366;2023-07-16T00:33:43;97482.28;;;27.82;100.00
31225;BME280;17847;31.524;74.366;2023-07-16T00:36:13;97485.81;;;27.82;100.00
31225;BME280;17847;31.524;74.366;2023-07-16T00:38:44;97493.69;;;27.75;100.00
31225;BME280;17847;31.524;74.366;2023-07-16T00:41:15;97488.41;;;27.79;100.00
31225;BME280;17847;31.524;74.366;2023-07-16T00:43:45;97485.50;;;27.84;100.00
31225;BME280;17847;31.524;74.366;2023-07-16T00:46:14;97481.38;;;27.78;100.00
31225;BME280;17847;31.524;74.366;2023-07-16T00:48:43;97477.06;;;27.77;100.00
31225;BME280;17847;31.524;74.366;2023-07-16T00:51:13;97480.25;;;27.79;100.00
31225;BME280;17847;31.524;74.366;2023-07-16T00:53:46;97483.09;;;27.82;100.00
31225;BME280;17847;31.524;74.366;2023-07-16T00:56:17;97487.84;;;27.85;100.00
31225;BME280;17847;31.524;74.366;2023-07-16T00:58:47;97487.72;;;27.82;100.00
31225;BME280;17847;31.524;74.366;2023-07-16T01:01:16;97497.13;;;27.84;100.00
31225;BME280;17847;31.524;74.366;2023-07-16T01:03:46;97491.38;;;27.86;100.00
31225;BME280;17847;31.524;74.366;2023-07-16T01:06:46;97502.06;;;27.91;100.00
31225;BME280;17847;31.524;74.366;2023-07-16T01:09:18;97513.06;;;27.94;100.00
31225;BME280;17847;31.524;74.366;2023-07-16T01:11:50;97510.81;;;27.96;100.00
31225;BME280;17847;31.524;74.366;2023-07-16T01:14:21;97514.34;;;27.97;100.00
31225;BME280;17847;31.524;74.366;2023-07-16T01:16:51;97525.34;;;28.00;100.00
31225;BME280;17847;31.524;74.366;2023-07-16T01:19:27;97525.16;;;28.05;100.00
31225;BME280;17847;31.524;74.366;2023-07-16T01:30:27;97538.63;;;28.02;100.00
31225;BME280;17847;31.524;74.366;2023-07-16T01:32:58;97540.22;;;28.03;100.00
31225;BME280;17847;31.524;74.366;2023-07-16T01:35:30;97549.94;;;28.12;100.00
31225;BME280;17847;31.524;74.366;2023-07-16T01:38:00;97556.63;;;28.15;100.00
31225;BME280;17847;31.524;74.366;2023-07-16T01:40:30;97556.41;;;28.20;100.00
31225;BME280;17847;31.524;74.366;2023-07-16T01:43:00;97565.13;;;27.93;100.00
31225;BME280;17847;31.524;74.366;2023-07-16T01:45:30;97567.00;;;28.01;100.00
31225;BME280;17847;31.524;74.366;2023-07-16T01:48:29;97563.78;;;27.99;100.00
31225;BME280;17847;31.524;74.366;2023-07-16T01:50:59;97565.31;;;28.08;100.00
31225;BME280;17847;31.524;74.366;2023-07-16T01:53:29;97563.00;;;27.98;100.00
31225;BME280;17847;31.524;74.366;2023-07-16T01:56:01;97565.13;;;27.93;100.00
31225;BME280;17847;31.524;74.366;2023-07-16T01:58:31;97566.06;;;27.97;100.00
31225;BME280;17847;31.524;74.366;2023-07-16T02:01:01;97564.84;;;28.06;100.00
31225;BME280;17847;31.524;74.366;2023-07-16T02:03:30;97573.47;;;28.08;100.00
31225;BME280;17847;31.524;74.366;2023-07-16T02:06:00;97586.63;;;28.06;100.00
31225;BME280;17847;31.524;74.366;2023-07-16T02:08:29;97596.25;;;28.04;100.00
31225;BME280;17847;31.524;74.366;2023-07-16T02:10:58;97594.63;;;28.11;100.00
31225;BME280;17847;31.524;74.366;2023-07-16T02:13:28;97607.91;;;28.13;100.00
31225;BME280;17847;31.524;74.366;2023-07-16T02:15:58;97621.03;;;28.11;100.00
31225;BME280;17847;31.524;74.366;2023-07-16T02:18:34;97627.69;;;28.01;100.00
31225;BME280;17847;31.524;74.366;2023-07-16T02:21:08;97624.59;;;28.03;100.00
31225;BME280;17847;31.524;74.366;2023-07-16T02:23:38;97623.34;;;28.00;100.00
31225;BME280;17847;31.524;74.366;2023-07-16T02:26:08;97627.94;;;28.08;100.00
31225;BME280;17847;31.524;74.366;2023-07-16T02:28:40;97632.56;;;28.08;100.00
31225;BME280;17847;31.524;74.366;2023-07-16T02:31:10;97640.38;;;28.18;100.00
31225;BME280;17847;31.524;74.366;2023-07-16T02:33:40;97639.50;;;28.26;100.00
31225;BME280;17847;31.524;74.366;2023-07-16T02:36:10;97643.75;;;28.15;100.00
31225;BME280;17847;31.524;74.366;2023-07-16T02:38:42;97647.31;;;28.07;100.00
31225;BME280;17847;31.524;74.366;2023-07-16T02:41:12;97661.13;;;28.02;100.00
31225;BME280;17847;31.524;74.366;2023-07-16T02:43:44;97657.84;;;28.17;100.00
31225;BME280;17847;31.524;74.366;2023-07-16T02:46:14;97666.72;;;28.05;100.00
31225;BME280;17847;31.524;74.366;2023-07-16T02:48:48;97671.38;;;28.05;100.00
31225;BME280;17847;31.524;74.366;2023-07-16T02:51:17;97682.56;;;28.03;100.00
31225;BME280;17847;31.524;74.366;2023-07-16T02:53:47;97679.16;;;28.15;100.00
31225;BME280;17847;31.524;74.366;2023-07-16T02:56:16;97681.34;;;28.22;100.00
31225;BME280;17847;31.524;74.366;2023-07-16T02:58:46;97687.66;;;28.13;100.00
31225;BME280;17847;31.524;74.366;2023-07-16T03:01:16;97693.72;;;28.19;100.00
31225;BME280;17847;31.524;74.366;2023-07-16T03:03:45;97690.66;;;28.21;100.00
31225;BME280;17847;31.524;74.366;2023-07-16T03:06:14;97693.31;;;28.29;100.00
31225;BME280;17847;31.524;74.366;2023-07-16T03:08:50;97691.50;;;28.33;100.00
31225;BME280;17847;31.524;74.366;2023-07-16T03:11:20;97698.44;;;28.31;100.00
31225;BME280;17847;31.524;74.366;2023-07-16T03:13:49;97693.78;;;28.31;100.00
31225;BME280;17847;31.524;74.366;2023-07-16T03:16:19;97684.63;;;28.36;100.00
31225;BME280;17847;31.524;74.366;2023-07-16T03:18:48;97694.72;;;28.35;100.00
31225;BME280;17847;31.524;74.366;2023-07-16T03:21:17;97694.09;;;28.30;100.00
31225;BME280;17847;31.524;74.366;2023-07-16T03:23:47;97699.31;;;28.23;100.00
31225;BME280;17847;31.524;74.366;2023-07-16T03:26:18;97697.03;;;28.25;100.00
31225;BME280;17847;31.524;74.366;2023-07-16T03:28:48;97704.38;;;28.24;100.00
31225;BME280;17847;31.524;74.366;2023-07-16T03:31:18;97703.06;;;28.30;100.00
31225;BME280;17847;31.524;74.366;2023-07-16T03:33:48;97704.19;;;28.29;100.00
31225;BME280;17847;31.524;74.366;2023-07-16T03:36:18;97709.84;;;28.24;100.00
31225;BME280;17847;31.524;74.366;2023-07-16T03:38:49;97700.88;;;28.24;100.00
31225;BME280;17847;31.524;74.366;2023-07-16T03:41:19;97704.38;;;28.24;100.00
31225;BME280;17847;31.524;74.366;2023-07-16T03:43:49;97710.31;;;28.26;100.00
31225;BME280;17847;31.524;74.366;2023-07-16T03:46:20;97711.97;;;28.19;100.00
31225;BME280;17847;31.524;74.366;2023-07-16T03:48:52;97712.81;;;28.10;100.00
31225;BME280;17847;31.524;74.366;2023-07-16T03:51:22;97725.44;;;28.15;100.00
31225;BME280;17847;31.524;74.366;2023-07-16T03:53:53;97717.88;;;28.21;100.00
31225;BME280;17847;31.524;74.366;2023-07-16T03:56:23;97724.81;;;28.18;100.00
31225;BME280;17847;31.524;74.366;2023-07-16T03:58:52;97726.44;;;28.10;100.00
31225;BME280;17847;31.524;74.366;2023-07-16T04:01:21;97731.84;;;28.19;100.00
31225;BME280;17847;31.524;74.366;2023-07-16T04:03:51;97742.06;;;28.22;100.00
31225;BME280;17847;31.524;74.366;2023-07-16T04:06:21;97733.56;;;28.24;100.00
31225;BME280;17847;31.524;74.366;2023-07-16T04:08:52;97728.09;;;28.24;100.00
31225;BME280;17847;31.524;74.366;2023-07-16T04:11:21;97736.63;;;28.22;100.00
31225;BME280;17847;31.524;74.366;2023-07-16T04:13:50;97735.50;;;28.23;100.00
31225;BME280;17847;31.524;74.366;2023-07-16T04:16:20;97730.06;;;28.23;100.00
31225;BME280;17847;31.524;74.366;2023-07-16T04:18:49;97731.13;;;28.31;100.00
31225;BME280;17847;31.524;74.366;2023-07-16T04:21:19;97728.31;;;28.39;100.00
31225;BME280;17847;31.524;74.366;2023-07-16T04:23:49;97740.16;;;28.43;100.00
31225;BME280;17847;31.524;74.366;2023-07-16T04:26:18;97736.75;;;28.46;100.00
31225;BME280;17847;31.524;74.366;2023-07-16T04:28:48;97742.81;;;28.52;100.00
31225;BME280;17847;31.524;74.366;2023-07-16T04:31:17;97745.22;;;28.53;100.00
31225;BME280;17847;31.524;74.366;2023-07-16T04:33:47;97747.75;;;28.58;100.00
31225;BME280;17847;31.524;74.366;2023-07-16T04:36:17;97746.81;;;28.54;100.00
31225;BME280;17847;31.524;74.366;2023-07-16T04:38:46;97747.06;;;28.62;100.00
31225;BME280;17847;31.524;74.366;2023-07-16T04:41:16;97752.47;;;28.70;100.00
31225;BME280;17847;31.524;74.366;2023-07-16T04:43:47;97755.31;;;28.74;100.00
31225;BME280;17847;31.524;74.366;2023-07-16T04:46:16;97747.75;;;28.58;100.00
31225;BME280;17847;31.524;74.366;2023-07-16T04:48:46;97745.91;;;28.71;100.00
31225;BME280;17847;31.524;74.366;2023-07-16T04:51:15;97745.75;;;28.68;100.00
31225;BME280;17847;31.524;74.366;2023-07-16T04:53:45;97740.22;;;28.55;100.00
31225;BME280;17847;31.524;74.366;2023-07-16T04:56:15;97738.75;;;28.58;100.00
31225;BME280;17847;31.524;74.366;2023-07-16T04:58:45;97740.63;;;28.66;100.00
31225;BME280;17847;31.524;74.366;2023-07-16T05:01:15;97733.88;;;28.64;100.00
31225;BME280;17847;31.524;74.366;2023-07-16T05:03:51;97736.59;;;28.72;100.00
31225;BME280;17847;31.524;74.366;2023-07-16T05:06:21;97733.69;;;28.69;100.00
31225;BME280;17847;31.524;74.366;2023-07-16T05:08:51;97725.06;;;28.67;100.00
31225;BME280;17847;31.524;74.366;2023-07-16T05:11:20;97724.94;;;28.63;100.00
31225;BME280;17847;31.524;74.366;2023-07-16T05:13:49;97715.75;;;28.68;100.00
31225;BME280;17847;31.524;74.366;2023-07-16T05:16:19;97727.38;;;28.77;100.00
31225;BME280;17847;31.524;74.366;2023-07-16T05:18:49;97728.09;;;28.86;100.00
31225;BME280;17847;31.524;74.366;2023-07-16T05:21:18;97720.38;;;28.76;100.00
31225;BME280;17847;31.524;74.366;2023-07-16T05:23:48;97707.78;;;28.83;100.00
31225;BME280;17847;31.524;74.366;2023-07-16T05:26:17;97707.09;;;28.86;100.00
31225;BME280;17847;31.524;74.366;2023-07-16T05:28:47;97717.34;;;28.89;100.00
31225;BME280;17847;31.524;74.366;2023-07-16T05:31:16;97723.25;;;28.91;100.00
31225;BME280;17847;31.524;74.366;2023-07-16T05:33:45;97716.56;;;28.89;100.00
31225;BME280;17847;31.524;74.366;2023-07-16T05:36:15;97717.25;;;28.98;100.00
31225;BME280;17847;31.524;74.366;2023-07-16T05:38:44;97708.03;;;28.90;100.00
31225;BME280;17847;31.524;74.366;2023-07-16T05:41:14;97709.63;;;28.91;100.00
31225;BME280;17847;31.524;74.366;2023-07-16T05:43:43;97710.31;;;28.88;100.00
31225;BME280;17847;31.524;74.366;2023-07-16T05:46:13;97711.44;;;28.87;100.00
31225;BME280;17847;31.524;74.366;2023-07-16T05:48:43;97716.00;;;28.95;100.00
31225;BME280;17847;31.524;74.366;2023-07-16T05:51:13;97713.19;;;29.04;100.00
31225;BME280;17847;31.524;74.366;2023-07-16T05:53:42;97714.53;;;28.98;100.00
31225;BME280;17847;31.524;74.366;2023-07-16T05:56:11;97722.13;;;28.92;100.00
31225;BME280;17847;31.524;74.366;2023-07-16T05:58:41;97714.06;;;28.96;100.00
31225;BME280;17847;31.524;74.366;2023-07-16T06:01:10;97728.50;;;28.96;100.00
31225;BME280;17847;31.524;74.366;2023-07-16T06:03:40;97720.66;;;28.95;100.00
31225;BME280;17847;31.524;74.366;2023-07-16T06:06:10;97719.16;;;28.85;100.00
31225;BME280;17847;31.524;74.366;2023-07-16T06:08:39;97719.19;;;28.97;100.00
31225;BME280;17847;31.524;74.366;2023-07-16T06:11:08;97717.19;;;29.07;100.00
31225;BME280;17847;31.524;74.366;2023-07-16T06:13:56;97725.56;;;29.01;100.00
31225;BME280;17847;31.524;74.366;2023-07-16T06:16:26;97723.25;;;28.91;100.00
31225;BME280;17847;31.524;74.366;2023-07-16T06:18:56;97733.94;;;28.96;100.00
31225;BME280;17847;31.524;74.366;2023-07-16T06:21:26;97725.66;;;28.93;100.00
31225;BME280;17847;31.524;74.366;2023-07-16T06:23:55;97730.63;;;28.91;100.00
31225;BME280;17847;31.524;74.366;2023-07-16T06:26:26;97738.09;;;28.82;100.00
31225;BME280;17847;31.524;74.366;2023-07-16T06:28:55;97735.50;;;28.85;100.00
31225;BME280;17847;31.524;74.366;2023-07-16T06:31:28;97730.97;;;28.89;100.00
31225;BME280;17847;31.524;74.366;2023-07-16T06:33:58;97722.00;;;28.89;100.00
31225;BME280;17847;31.524;74.366;2023-07-16T06:36:27;97716.50;;;28.77;100.00
31225;BME280;17847;31.524;74.366;2023-07-16T06:38:57;97720.16;;;28.81;100.00
31225;BME280;17847;31.524;74.366;2023-07-16T06:41:26;97713.81;;;28.89;100.00
31225;BME280;17847;31.524;74.366;2023-07-16T06:43:56;97706.63;;;28.72;100.00
31225;BME280;17847;31.524;74.366;2023-07-16T06:46:25;97701.94;;;28.73;100.00
31225;BME280;17847;31.524;74.366;2023-07-16T06:48:55;97693.56;;;28.78;100.00
31225;BME280;17847;31.524;74.366;2023-07-16T06:51:24;97683.06;;;28.68;100.00
31225;BME280;17847;31.524;74.366;2023-07-16T06:53:54;97679.38;;;28.72;100.00
31225;BME280;17847;31.524;74.366;2023-07-16T06:56:23;97661.25;;;28.68;100.00
31225;BME280;17847;31.524;74.366;2023-07-16T06:58:55;97667.66;;;28.72;100.00
31225;BME280;17847;31.524;74.366;2023-07-16T07:01:25;97670.09;;;28.65;100.00
31225;BME280;17847;31.524;74.366;2023-07-16T07:03:56;97670.16;;;28.77;100.00
31225;BME280;17847;31.524;74.366;2023-07-16T07:06:26;97673.09;;;28.72;100.00
31225;BME280;17847;31.524;74.366;2023-07-16T07:08:55;97668.56;;;28.76;100.00
31225;BME280;17847;31.524;74.366;2023-07-16T07:11:25;97670.16;;;28.77;100.00
31225;BME280;17847;31.524;74.366;2023-07-16T07:13:55;97661.22;;;28.88;100.00
31225;BME280;17847;31.524;74.366;2023-07-16T07:16:26;97662.53;;;29.03;100.00
31225;BME280;17847;31.524;74.366;2023-07-16T07:18:57;97661.72;;;29.02;100.00
31225;BME280;17847;31.524;74.366;2023-07-16T07:21:26;97665.16;;;29.12;100.00
31225;BME280;17847;31.524;74.366;2023-07-16T07:23:56;97668.22;;;29.10;100.00
31225;BME280;17847;31.524;74.366;2023-07-16T07:26:25;97671.72;;;29.11;100.00
31225;BME280;17847;31.524;74.366;2023-07-16T07:28:55;97663.19;;;29.12;100.00
31225;BME280;17847;31.524;74.366;2023-07-16T07:31:25;97651.28;;;29.17;100.00
31225;BME280;17847;31.524;74.366;2023-07-16T07:33:54;97649.81;;;29.07;100.00
31225;BME280;17847;31.524;74.366;2023-07-16T07:36:27;97651.63;;;29.03;100.00
31225;BME280;17847;31.524;74.366;2023-07-16T07:38:57;97652.53;;;29.07;100.00
31225;BME280;17847;31.524;74.366;2023-07-16T07:41:26;97653.66;;;29.18;100.00
31225;BME280;17847;31.524;74.366;2023-07-16T07:43:55;97654.00;;;29.17;100.00
31225;BME280;17847;31.524;74.366;2023-07-16T07:46:25;97649.44;;;29.09;100.00
31225;BME280;17847;31.524;74.366;2023-07-16T07:48:54;97650.25;;;29.09;100.00
31225;BME280;17847;31.524;74.366;2023-07-16T07:51:26;97652.16;;;29.09;100.00
31225;BME280;17847;31.524;74.366;2023-07-16T07:53:55;97650.72;;;29.11;100.00
31225;BME280;17847;31.524;74.366;2023-07-16T07:56:25;97652.63;;;29.11;100.00
31225;BME280;17847;31.524;74.366;2023-07-16T07:58:55;97659.22;;;29.10;100.00
31225;BME280;17847;31.524;74.366;2023-07-16T08:01:25;97650.81;;;29.15;100.00
31225;BME280;17847;31.524;74.366;2023-07-16T08:03:56;97655.38;;;29.23;100.00
31225;BME280;17847;31.524;74.366;2023-07-16T08:06:26;97645.28;;;29.23;100.00
31225;BME280;17847;31.524;74.366;2023-07-16T08:08:56;97640.72;;;29.27;100.00
31225;BME280;17847;31.524;74.366;2023-07-16T08:11:28;97633.66;;;29.26;100.00
31225;BME280;17847;31.524;74.366;2023-07-16T08:13:57;97642.53;;;29.23;100.00
31225;BME280;17847;31.524;74.366;2023-07-16T08:16:27;97649.72;;;29.28;100.00
31225;BME280;17847;31.524;74.366;2023-07-16T08:18:59;97639.25;;;29.30;100.00
31225;BME280;17847;31.524;74.366;2023-07-16T08:21:32;97631.22;;;29.33;100.00
31225;BME280;17847;31.524;74.366;2023-07-16T08:24:03;97628.78;;;29.20;100.00
31225;BME280;17847;31.524;74.366;2023-07-16T08:26:33;97624.16;;;29.32;100.00
31225;BME280;17847;31.524;74.366;2023-07-16T08:29:04;97623.38;;;29.32;100.00
31225;BME280;17847;31.524;74.366;2023-07-16T08:31:37;97609.28;;;29.42;100.00
31225;BME280;17847;31.524;74.366;2023-07-16T08:34:06;97619.06;;;29.43;100.00
31225;BME280;17847;31.524;74.366;2023-07-16T08:36:36;97624.25;;;29.48;100.00
31225;BME280;17847;31.524;74.366;2023-07-16T08:39:10;97615.63;;;29.46;100.00
31225;BME280;17847;31.524;74.366;2023-07-16T08:41:41;97623.72;;;29.42;100.00
31225;BME280;17847;31.524;74.366;2023-07-16T08:44:12;97618.34;;;29.58;100.00
31225;BME280;17847;31.524;74.366;2023-07-16T08:46:42;97616.09;;;29.60;100.00
31225;BME280;17847;31.524;74.366;2023-07-16T08:49:12;97624.59;;;29.71;100.00
31225;BME280;17847;31.524;74.366;2023-07-16T08:51:43;97620.06;;;29.63;100.00
31225;BME280;17847;31.524;74.366;2023-07-16T08:54:14;97612.31;;;29.77;100.00
31225;BME280;17847;31.524;74.366;2023-07-16T08:56:48;97608.69;;;29.73;100.00
31225;BME280;17847;31.524;74.366;2023-07-16T08:59:18;97598.78;;;29.68;100.00
31225;BME280;17847;31.524;74.366;2023-07-16T09:01:48;97591.63;;;29.64;100.00
31225;BME280;17847;31.524;74.366;2023-07-16T09:04:21;97598.22;;;29.63;100.00
31225;BME280;17847;31.524;74.366;2023-07-16T09:06:51;97596.06;;;29.68;100.00
31225;BME280;17847;31.524;74.366;2023-07-16T09:09:24;97596.38;;;29.79;100.00
31225;BME280;17847;31.524;74.366;2023-07-16T09:11:57;97591.69;;;29.79;100.00
31225;BME280;17847;31.524;74.366;2023-07-16T09:14:29;97588.66;;;29.69;100.00
31225;BME280;17847;31.524;74.366;2023-07-16T09:16:58;97582.19;;;29.73;100.00
31225;BME280;17847;31.524;74.366;2023-07-16T09:19:32;97590.47;;;29.77;100.00
31225;BME280;17847;31.524;74.366;2023-07-16T09:22:01;97587.50;;;29.94;100.00
31225;BME280;17847;31.524;74.366;2023-07-16T09:24:31;97587.44;;;30.06;100.00
31225;BME280;17847;31.524;74.366;2023-07-16T09:27:01;97584.75;;;29.94;100.00
31225;BME280;17847;31.524;74.366;2023-07-16T09:29:30;97590.28;;;30.10;100.00
31225;BME280;17847;31.524;74.366;2023-07-16T09:32:01;97586.91;;;30.28;100.00
31225;BME280;17847;31.524;74.366;2023-07-16T09:34:37;97592.94;;;30.34;100.00
31225;BME280;17847;31.524;74.366;2023-07-16T09:37:06;97596.00;;;30.45;100.00
31225;BME280;17847;31.524;74.366;2023-07-16T09:39:37;97584.09;;;30.53;100.00
31225;BME280;17847;31.524;74.366;2023-07-16T09:42:07;97582.34;;;30.45;100.00
31225;BME280;17847;31.524;74.366;2023-07-16T09:44:37;97586.13;;;30.56;100.00
31225;BME280;17847;31.524;74.366;2023-07-16T09:47:07;97580.25;;;30.42;100.00
31225;BME280;17847;31.524;74.366;2023-07-16T09:49:40;97569.22;;;30.38;100.00
31225;BME280;17847;31.524;74.366;2023-07-16T09:52:09;97565.09;;;30.44;100.00
31225;BME280;17847;31.524;74.366;2023-07-16T09:54:40;97565.44;;;30.43;100.00
31225;BME280;17847;31.524;74.366;2023-07-16T09:57:14;97567.34;;;30.54;100.00
31225;BME280;17847;31.524;74.366;2023-07-16T09:59:45;97561.19;;;30.57;100.00
31225;BME280;17847;31.524;74.366;2023-07-16T10:02:15;97561.44;;;30.68;100.00
31225;BME280;17847;31.524;74.366;2023-07-16T10:04:45;97555.31;;;30.71;100.00
31225;BME280;17847;31.524;74.366;2023-07-16T10:07:22;97556.44;;;30.86;100.00
31225;BME280;17847;31.524;74.366;2023-07-16T10:09:57;97564.38;;;30.91;100.00
31225;BME280;17847;31.524;74.366;2023-07-16T10:12:27;97574.44;;;30.71;100.00
31225;BME280;17847;31.524;74.366;2023-07-16T10:14:57;97571.34;;;30.88;100.00
31225;BME280;17847;31.524;74.366;2023-07-16T10:17:29;97565.47;;;31.02;100.00
31225;BME280;17847;31.524;74.366;2023-07-16T10:20:08;97558.41;;;31.01;99.89
31225;BME280;17847;31.524;74.366;2023-07-16T10:22:45;97561.94;;;31.17;99.02
31225;BME280;17847;31.524;74.366;2023-07-16T10:27:52;97548.06;;;31.26;99.62
31225;BME280;17847;31.524;74.366;2023-07-16T10:30:21;97550.59;;;31.34;98.24
31225;BME280;17847;31.524;74.366;2023-07-16T10:32:53;97552.38;;;31.27;98.55
31225;BME280;17847;31.524;74.366;2023-07-16T10:35:22;97553.72;;;31.33;98.00
31225;BME280;17847;31.524;74.366;2023-07-16T10:37:54;97544.50;;;31.41;97.61
31225;BME280;17847;31.524;74.366;2023-07-16T10:40:24;97547.25;;;31.41;97.44
31225;BME280;17847;31.524;74.366;2023-07-16T10:42:53;97542.66;;;31.29;96.19
31225;BME280;17847;31.524;74.366;2023-07-16T10:45:23;97542.38;;;31.34;97.86
31225;BME280;17847;31.524;74.366;2023-07-16T10:47:53;97544.44;;;31.37;97.63
31225;BME280;17847;31.524;74.366;2023-07-16T10:50:26;97538.16;;;31.37;96.49
31225;BME280;17847;31.524;74.366;2023-07-16T10:52:57;97536.22;;;31.37;96.13
31225;BME280;17847;31.524;74.366;2023-07-16T10:55:28;97533.56;;;31.41;97.74
31225;BME280;17847;31.524;74.366;2023-07-16T10:58:04;97530.34;;;31.19;99.46
31225;BME280;17847;31.524;74.366;2023-07-16T11:00:39;97525.03;;;31.27;99.66
31225;BME280;17847;31.524;74.366;2023-07-16T11:03:09;97517.53;;;31.24;99.06
31225;BME280;17847;31.524;74.366;2023-07-16T11:05:39;97514.44;;;31.25;99.04
31225;BME280;17847;31.524;74.366;2023-07-16T11:08:24;97506.88;;;31.18;99.43
31225;BME280;17847;31.524;74.366;2023-07-16T11:10:57;97501.31;;;31.15;100.00
31225;BME280;17847;31.524;74.366;2023-07-16T11:13:28;97498.59;;;31.15;100.00
31225;BME280;17847;31.524;74.366;2023-07-16T11:16:08;97493.56;;;31.01;99.73
31225;BME280;17847;31.524;74.366;2023-07-16T11:18:38;97476.44;;;31.04;98.19
31225;BME280;17847;31.524;74.366;2023-07-16T11:21:11;97470.19;;;31.04;100.00
31225;BME280;17847;31.524;74.366;2023-07-16T11:23:41;97475.56;;;31.00;100.00
31225;BME280;17847;31.524;74.366;2023-07-16T11:26:10;97474.16;;;31.06;98.52
31225;BME280;17847;31.524;74.366;2023-07-16T11:28:41;97464.94;;;30.99;99.01
31225;BME280;17847;31.524;74.366;2023-07-16T11:31:14;97458.16;;;31.08;99.90
31225;BME280;17847;31.524;74.366;2023-07-16T11:33:45;97457.16;;;31.16;98.62
31225;BME280;17847;31.524;74.366;2023-07-16T11:36:16;97462.03;;;31.23;97.38
31225;BME280;17847;31.524;74.366;2023-07-16T11:38:48;97461.34;;;31.10;98.85
31225;BME280;17847;31.524;74.366;2023-07-16T11:41:20;97458.44;;;31.03;98.90
31225;BME280;17847;31.524;74.366;2023-07-16T11:43:50;97465.31;;;31.13;98.00
31225;BME280;17847;31.524;74.366;2023-07-16T11:46:22;97457.16;;;31.16;97.71
31225;BME280;17847;31.524;74.366;2023-07-16T11:48:52;97457.53;;;31.15;96.95
31225;BME280;17847;31.524;74.366;2023-07-16T11:51:21;97460.78;;;31.20;96.28
31225;BME280;17847;31.524;74.366;2023-07-16T11:53:51;97461.66;;;31.25;93.86
31225;BME280;17847;31.524;74.366;2023-07-16T11:56:24;97466.78;;;31.26;95.67
31225;BME280;17847;31.524;74.366;2023-07-16T11:58:54;97455.34;;;31.05;98.09
31225;BME280;17847;31.524;74.366;2023-07-16T12:01:23;97463.81;;;31.15;96.48
31225;BME280;17847;31.524;74.366;2023-07-16T12:03:53;97450.63;;;31.21;95.28
31225;BME280;17847;31.524;74.366;2023-07-16T12:06:22;97448.41;;;31.27;97.84
31225;BME280;17847;31.524;74.366;2023-07-16T12:08:58;97452.81;;;31.31;97.85
31225;BME280;17847;31.524;74.366;2023-07-16T12:11:28;97435.25;;;31.32;97.66
31225;BME280;17847;31.524;74.366;2023-07-16T12:13:59;97436.16;;;31.20;97.61
31225;BME280;17847;31.524;74.366;2023-07-16T12:16:29;97435.72;;;31.18;95.63
31225;BME280;17847;31.524;74.366;2023-07-16T12:19:02;97444.88;;;31.26;95.95
31225;BME280;17847;31.524;74.366;2023-07-16T12:21:32;97452.56;;;31.20;96.55
31225;BME280;17847;31.524;74.366;2023-07-16T12:24:02;97452.41;;;31.13;97.23
31225;BME280;17847;31.524;74.366;2023-07-16T12:26:31;97451.63;;;31.13;96.98
31225;BME280;17847;31.524;74.366;2023-07-16T12:29:02;97457.09;;;31.13;97.46
31225;BME280;17847;31.524;74.366;2023-07-16T12:31:32;97460.63;;;31.13;97.62
31225;BME280;17847;31.524;74.366;2023-07-16T12:34:02;97460.00;;;31.20;97.35
31225;BME280;17847;31.524;74.366;2023-07-16T12:36:33;97449.13;;;31.24;97.79
31225;BME280;17847;31.524;74.366;2023-07-16T12:39:04;97451.16;;;31.27;98.32
31225;BME280;17847;31.524;74.366;2023-07-16T12:41:33;97442.06;;;31.23;97.92
31225;BME280;17847;31.524;74.366;2023-07-16T12:44:03;97440.66;;;31.29;100.00
31225;BME280;17847;31.524;74.366;2023-07-16T12:46:32;97454.81;;;31.15;98.28
31225;BME280;17847;31.524;74.366;2023-07-16T12:49:03;97456.03;;;31.17;99.56
31225;BME280;17847;31.524;74.366;2023-07-16T12:51:32;97458.56;;;31.26;99.31
31225;BME280;17847;31.524;74.366;2023-07-16T12:54:02;97456.03;;;31.17;97.90
31225;BME280;17847;31.524;74.366;2023-07-16T12:56:31;97461.06;;;31.15;98.70
31225;BME280;17847;31.524;74.366;2023-07-16T12:59:02;97459.41;;;31.11;98.65
31225;BME280;17847;31.524;74.366;2023-07-16T13:01:32;97464.16;;;31.14;99.23
31225;BME280;17847;31.524;74.366;2023-07-16T13:04:02;97464.16;;;31.14;99.43
31225;BME280;17847;31.524;74.366;2023-07-16T13:06:31;97468.84;;;31.13;99.94
31225;BME280;17847;31.524;74.366;2023-07-16T13:09:01;97474.31;;;31.13;100.00
31225;BME280;17847;31.524;74.366;2023-07-16T13:11:31;97477.69;;;31.07;100.00